sensor_id;sensor_type;location;lat;lon;timestamp;temperature;humidity
16118;DHT22;8163;50.118;5.342;2022-07-30T00:01:18;18.40;64.30
16118;DHT22;8163;50.118;5.342;2022-07-30T00:03:45;18.40;64.50
16118;DHT22;8163;50.118;5.342;2022-07-30T00:06:12;18.40;64.70
16118;DHT22;8163;50.118;5.342;2022-07-30T00:08:39;18.40;64.90
16118;DHT22;8163;50.118;5.342;2022-07-30T00:11:08;18.30;64.90
16118;DHT22;8163;50.118;5.342;2022-07-30T00:13:36;18.30;64.90
16118;DHT22;8163;50.118;5.342;2022-07-30T00:16:03;18.20;64.80
16118;DHT22;8163;50.118;5.342;2022-07-30T00:18:34;18.20;65.00
16118;DHT22;8163;50.118;5.342;2022-07-30T00:21:01;18.10;65.10
16118;DHT22;8163;50.118;5.342;2022-07-30T00:23:28;18.10;65.30
16118;DHT22;8163;50.118;5.342;2022-07-30T00:25:56;18.00;65.50
16118;DHT22;8163;50.118;5.342;2022-07-30T00:28:24;18.00;65.60
16118;DHT22;8163;50.118;5.342;2022-07-30T00:30:51;18.00;65.70
16118;DHT22;8163;50.118;5.342;2022-07-30T00:33:18;17.90;65.60
16118;DHT22;8163;50.118;5.342;2022-07-30T00:35:47;17.90;65.70
16118;DHT22;8163;50.118;5.342;2022-07-30T00:38:14;17.90;66.00
16118;DHT22;8163;50.118;5.342;2022-07-30T00:40:41;17.80;66.00
16118;DHT22;8163;50.118;5.342;2022-07-30T00:43:13;17.80;66.20
16118;DHT22;8163;50.118;5.342;2022-07-30T00:45:40;17.70;66.50
16118;DHT22;8163;50.118;5.342;2022-07-30T00:48:09;17.70;66.60
16118;DHT22;8163;50.118;5.342;2022-07-30T00:50:36;17.60;66.90
16118;DHT22;8163;50.118;5.342;2022-07-30T00:53:06;17.70;67.00
16118;DHT22;8163;50.118;5.342;2022-07-30T00:55:34;17.60;67.00
16118;DHT22;8163;50.118;5.342;2022-07-30T00:58:02;17.60;66.90
16118;DHT22;8163;50.118;5.342;2022-07-30T01:00:29;17.60;67.00
16118;DHT22;8163;50.118;5.342;2022-07-30T01:02:56;17.60;67.50
16118;DHT22;8163;50.118;5.342;2022-07-30T01:05:23;17.50;67.50
16118;DHT22;8163;50.118;5.342;2022-07-30T01:07:51;17.50;67.50
16118;DHT22;8163;50.118;5.342;2022-07-30T01:10:22;17.50;67.60
16118;DHT22;8163;50.118;5.342;2022-07-30T01:12:49;17.40;67.70
16118;DHT22;8163;50.118;5.342;2022-07-30T01:15:17;17.40;67.80
16118;DHT22;8163;50.118;5.342;2022-07-30T01:17:46;17.40;68.10
16118;DHT22;8163;50.118;5.342;2022-07-30T01:20:17;17.30;68.10
16118;DHT22;8163;50.118;5.342;2022-07-30T01:22:57;17.30;68.30
16118;DHT22;8163;50.118;5.342;2022-07-30T01:25:41;17.30;68.70
16118;DHT22;8163;50.118;5.342;2022-07-30T01:28:12;17.20;68.50
16118;DHT22;8163;50.118;5.342;2022-07-30T01:30:42;17.20;68.60
16118;DHT22;8163;50.118;5.342;2022-07-30T01:33:15;17.20;68.80
16118;DHT22;8163;50.118;5.342;2022-07-30T01:35:46;17.10;69.00
16118;DHT22;8163;50.118;5.342;2022-07-30T01:38:14;17.10;69.10
16118;DHT22;8163;50.118;5.342;2022-07-30T01:40:45;17.10;69.10
16118;DHT22;8163;50.118;5.342;2022-07-30T01:43:14;17.10;69.20
16118;DHT22;8163;50.118;5.342;2022-07-30T01:45:42;17.10;69.30
16118;DHT22;8163;50.118;5.342;2022-07-30T01:48:12;17.00;69.30
16118;DHT22;8163;50.118;5.342;2022-07-30T01:50:43;17.00;69.40
16118;DHT22;8163;50.118;5.342;2022-07-30T01:53:13;17.00;69.60
16118;DHT22;8163;50.118;5.342;2022-07-30T01:55:41;16.90;69.70
16118;DHT22;8163;50.118;5.342;2022-07-30T01:58:13;16.80;69.70
16118;DHT22;8163;50.118;5.342;2022-07-30T02:00:42;16.90;70.00
16118;DHT22;8163;50.118;5.342;2022-07-30T02:03:10;16.80;69.80
16118;DHT22;8163;50.118;5.342;2022-07-30T02:05:40;16.80;70.10
16118;DHT22;8163;50.118;5.342;2022-07-30T02:08:13;16.80;70.20
16118;DHT22;8163;50.118;5.342;2022-07-30T02:10:44;16.70;70.40
16118;DHT22;8163;50.118;5.342;2022-07-30T02:13:19;16.70;70.60
16118;DHT22;8163;50.118;5.342;2022-07-30T02:15:50;16.60;70.70
16118;DHT22;8163;50.118;5.342;2022-07-30T02:18:22;16.60;70.80
16118;DHT22;8163;50.118;5.342;2022-07-30T02:20:59;16.60;71.10
16118;DHT22;8163;50.118;5.342;2022-07-30T02:23:27;16.60;71.40
16118;DHT22;8163;50.118;5.342;2022-07-30T02:25:56;16.50;71.40
16118;DHT22;8163;50.118;5.342;2022-07-30T02:28:28;16.50;71.40
16118;DHT22;8163;50.118;5.342;2022-07-30T02:30:57;16.40;71.30
16118;DHT22;8163;50.118;5.342;2022-07-30T02:33:30;16.40;71.30
16118;DHT22;8163;50.118;5.342;2022-07-30T02:35:59;16.40;71.50
16118;DHT22;8163;50.118;5.342;2022-07-30T02:38:28;16.40;71.60
16118;DHT22;8163;50.118;5.342;2022-07-30T02:40:58;16.30;71.70
16118;DHT22;8163;50.118;5.342;2022-07-30T02:43:28;16.30;71.90
16118;DHT22;8163;50.118;5.342;2022-07-30T02:45:59;16.30;72.10
16118;DHT22;8163;50.118;5.342;2022-07-30T02:48:28;16.30;72.10
16118;DHT22;8163;50.118;5.342;2022-07-30T02:50:59;16.20;72.20
16118;DHT22;8163;50.118;5.342;2022-07-30T02:53:30;16.20;72.40
16118;DHT22;8163;50.118;5.342;2022-07-30T02:56:01;16.10;72.30
16118;DHT22;8163;50.118;5.342;2022-07-30T02:58:30;16.10;72.60
16118;DHT22;8163;50.118;5.342;2022-07-30T03:00:59;16.10;72.70
16118;DHT22;8163;50.118;5.342;2022-07-30T03:03:34;16.10;72.70
16118;DHT22;8163;50.118;5.342;2022-07-30T03:06:03;16.10;72.80
16118;DHT22;8163;50.118;5.342;2022-07-30T03:08:31;16.10;72.90
16118;DHT22;8163;50.118;5.342;2022-07-30T03:10:59;16.00;72.80
16118;DHT22;8163;50.118;5.342;2022-07-30T03:13:26;16.00;73.10
16118;DHT22;8163;50.118;5.342;2022-07-30T03:15:57;16.00;73.20
16118;DHT22;8163;50.118;5.342;2022-07-30T03:18:27;15.90;73.30
16118;DHT22;8163;50.118;5.342;2022-07-30T03:20:59;15.90;73.50
16118;DHT22;8163;50.118;5.342;2022-07-30T03:23:27;15.80;73.50
16118;DHT22;8163;50.118;5.342;2022-07-30T03:25:59;15.80;73.50
16118;DHT22;8163;50.118;5.342;2022-07-30T03:28:27;15.80;73.80
16118;DHT22;8163;50.118;5.342;2022-07-30T03:30:58;15.70;73.70
16118;DHT22;8163;50.118;5.342;2022-07-30T03:33:27;15.70;73.80
16118;DHT22;8163;50.118;5.342;2022-07-30T03:35:55;15.70;73.90
16118;DHT22;8163;50.118;5.342;2022-07-30T03:38:22;15.70;74.10
16118;DHT22;8163;50.118;5.342;2022-07-30T03:40:50;15.70;74.20
16118;DHT22;8163;50.118;5.342;2022-07-30T03:43:17;15.70;74.30
16118;DHT22;8163;50.118;5.342;2022-07-30T03:45:45;15.60;74.20
16118;DHT22;8163;50.118;5.342;2022-07-30T03:48:14;15.60;74.40
16118;DHT22;8163;50.118;5.342;2022-07-30T03:50:43;15.60;74.50
16118;DHT22;8163;50.118;5.342;2022-07-30T03:53:11;15.60;74.60
16118;DHT22;8163;50.118;5.342;2022-07-30T03:55:39;15.50;74.70
16118;DHT22;8163;50.118;5.342;2022-07-30T03:58:07;15.50;74.90
16118;DHT22;8163;50.118;5.342;2022-07-30T04:00:37;15.50;75.10
16118;DHT22;8163;50.118;5.342;2022-07-30T04:03:05;15.60;75.60
16118;DHT22;8163;50.118;5.342;2022-07-30T04:05:34;15.60;75.80
16118;DHT22;8163;50.118;5.342;2022-07-30T04:08:01;15.60;75.80
16118;DHT22;8163;50.118;5.342;2022-07-30T04:10:29;15.60;75.80
16118;DHT22;8163;50.118;5.342;2022-07-30T04:12:56;15.60;75.70
16118;DHT22;8163;50.118;5.342;2022-07-30T04:15:23;15.60;75.80
16118;DHT22;8163;50.118;5.342;2022-07-30T04:17:55;15.60;75.80
16118;DHT22;8163;50.118;5.342;2022-07-30T04:20:26;15.60;75.80
16118;DHT22;8163;50.118;5.342;2022-07-30T04:22:56;15.60;75.80
16118;DHT22;8163;50.118;5.342;2022-07-30T04:25:24;15.60;75.80
16118;DHT22;8163;50.118;5.342;2022-07-30T04:27:52;15.70;76.40
16118;DHT22;8163;50.118;5.342;2022-07-30T04:30:20;15.90;77.00
16118;DHT22;8163;50.118;5.342;2022-07-30T04:32:47;16.20;77.00
16118;DHT22;8163;50.118;5.342;2022-07-30T04:35:14;16.40;76.70
16118;DHT22;8163;50.118;5.342;2022-07-30T04:37:40;16.30;76.60
16118;DHT22;8163;50.118;5.342;2022-07-30T04:40:10;16.30;76.90
16118;DHT22;8163;50.118;5.342;2022-07-30T04:42:37;16.30;77.30
16118;DHT22;8163;50.118;5.342;2022-07-30T04:45:05;17.10;77.90
16118;DHT22;8163;50.118;5.342;2022-07-30T04:47:32;18.00;77.40
16118;DHT22;8163;50.118;5.342;2022-07-30T04:49:59;18.70;76.80
16118;DHT22;8163;50.118;5.342;2022-07-30T04:52:26;19.30;76.10
16118;DHT22;8163;50.118;5.342;2022-07-30T04:54:56;19.80;75.40
16118;DHT22;8163;50.118;5.342;2022-07-30T04:57:30;20.30;74.70
16118;DHT22;8163;50.118;5.342;2022-07-30T04:59:58;20.80;73.90
16118;DHT22;8163;50.118;5.342;2022-07-30T05:02:32;21.20;73.20
16118;DHT22;8163;50.118;5.342;2022-07-30T05:05:01;21.70;72.60
16118;DHT22;8163;50.118;5.342;2022-07-30T05:07:29;22.10;71.90
16118;DHT22;8163;50.118;5.342;2022-07-30T05:09:57;22.60;71.60
16118;DHT22;8163;50.118;5.342;2022-07-30T05:12:32;23.00;70.70
16118;DHT22;8163;50.118;5.342;2022-07-30T05:15:03;23.40;69.80
16118;DHT22;8163;50.118;5.342;2022-07-30T05:17:33;23.70;69.20
16118;DHT22;8163;50.118;5.342;2022-07-30T05:20:00;23.90;68.90
16118;DHT22;8163;50.118;5.342;2022-07-30T05:22:27;24.30;68.30
16118;DHT22;8163;50.118;5.342;2022-07-30T05:24:56;24.60;67.50
16118;DHT22;8163;50.118;5.342;2022-07-30T05:27:23;24.80;66.60
16118;DHT22;8163;50.118;5.342;2022-07-30T05:29:51;25.10;66.00
16118;DHT22;8163;50.118;5.342;2022-07-30T05:32:19;25.40;64.80
16118;DHT22;8163;50.118;5.342;2022-07-30T05:34:46;25.40;63.90
16118;DHT22;8163;50.118;5.342;2022-07-30T05:37:13;25.50;62.70
16118;DHT22;8163;50.118;5.342;2022-07-30T05:39:40;25.60;61.80
16118;DHT22;8163;50.118;5.342;2022-07-30T05:42:13;25.60;61.20
16118;DHT22;8163;50.118;5.342;2022-07-30T05:44:41;25.70;60.80
16118;DHT22;8163;50.118;5.342;2022-07-30T05:47:09;26.50;60.80
16118;DHT22;8163;50.118;5.342;2022-07-30T05:49:36;26.30;60.50
16118;DHT22;8163;50.118;5.342;2022-07-30T05:52:04;25.30;61.00
16118;DHT22;8163;50.118;5.342;2022-07-30T05:54:31;24.30;61.80
16118;DHT22;8163;50.118;5.342;2022-07-30T05:56:58;23.60;62.10
16118;DHT22;8163;50.118;5.342;2022-07-30T05:59:25;23.20;62.50
16118;DHT22;8163;50.118;5.342;2022-07-30T06:01:52;23.00;62.80
16118;DHT22;8163;50.118;5.342;2022-07-30T06:04:20;24.80;62.20
16118;DHT22;8163;50.118;5.342;2022-07-30T06:06:47;26.60;60.00
16118;DHT22;8163;50.118;5.342;2022-07-30T06:09:14;27.40;58.90
16118;DHT22;8163;50.118;5.342;2022-07-30T06:11:41;28.30;58.00
16118;DHT22;8163;50.118;5.342;2022-07-30T06:14:08;29.30;56.60
16118;DHT22;8163;50.118;5.342;2022-07-30T06:16:35;30.20;55.60
16118;DHT22;8163;50.118;5.342;2022-07-30T06:19:02;29.20;55.40
16118;DHT22;8163;50.118;5.342;2022-07-30T06:21:31;30.20;55.20
16118;DHT22;8163;50.118;5.342;2022-07-30T06:23:58;30.70;54.60
16118;DHT22;8163;50.118;5.342;2022-07-30T06:26:25;31.60;54.60
16118;DHT22;8163;50.118;5.342;2022-07-30T06:28:52;32.10;53.50
16118;DHT22;8163;50.118;5.342;2022-07-30T06:31:19;32.70;52.80
16118;DHT22;8163;50.118;5.342;2022-07-30T06:33:47;33.10;52.30
16118;DHT22;8163;50.118;5.342;2022-07-30T06:36:14;33.30;51.50
16118;DHT22;8163;50.118;5.342;2022-07-30T06:38:42;33.70;51.20
16118;DHT22;8163;50.118;5.342;2022-07-30T06:41:11;33.80;50.60
16118;DHT22;8163;50.118;5.342;2022-07-30T06:43:40;32.50;51.40
16118;DHT22;8163;50.118;5.342;2022-07-30T06:46:07;31.70;51.50
16118;DHT22;8163;50.118;5.342;2022-07-30T06:48:34;30.60;52.30
16118;DHT22;8163;50.118;5.342;2022-07-30T06:51:02;28.90;53.60
16118;DHT22;8163;50.118;5.342;2022-07-30T06:53:29;28.30;54.30
16118;DHT22;8163;50.118;5.342;2022-07-30T06:55:57;28.60;54.50
16118;DHT22;8163;50.118;5.342;2022-07-30T06:58:24;28.60;54.40
16118;DHT22;8163;50.118;5.342;2022-07-30T07:00:51;27.50;55.60
16118;DHT22;8163;50.118;5.342;2022-07-30T07:03:19;29.20;55.20
16118;DHT22;8163;50.118;5.342;2022-07-30T07:05:47;31.50;53.60
16118;DHT22;8163;50.118;5.342;2022-07-30T07:08:14;33.00;51.50
16118;DHT22;8163;50.118;5.342;2022-07-30T07:10:41;33.90;50.20
16118;DHT22;8163;50.118;5.342;2022-07-30T07:13:09;34.60;49.30
16118;DHT22;8163;50.118;5.342;2022-07-30T07:15:37;35.20;48.80
16118;DHT22;8163;50.118;5.342;2022-07-30T07:18:05;35.80;48.00
16118;DHT22;8163;50.118;5.342;2022-07-30T07:20:32;36.10;46.90
16118;DHT22;8163;50.118;5.342;2022-07-30T07:23:00;36.30;46.30
16118;DHT22;8163;50.118;5.342;2022-07-30T07:25:27;36.50;45.80
16118;DHT22;8163;50.118;5.342;2022-07-30T07:27:54;36.80;45.20
16118;DHT22;8163;50.118;5.342;2022-07-30T07:30:22;36.90;44.60
16118;DHT22;8163;50.118;5.342;2022-07-30T07:32:49;36.90;43.90
16118;DHT22;8163;50.118;5.342;2022-07-30T07:35:17;37.00;43.60
16118;DHT22;8163;50.118;5.342;2022-07-30T07:37:46;37.10;42.80
16118;DHT22;8163;50.118;5.342;2022-07-30T07:46:56;37.60;41.20
16118;DHT22;8163;50.118;5.342;2022-07-30T07:49:23;37.70;40.70
16118;DHT22;8163;50.118;5.342;2022-07-30T07:51:50;37.60;40.60
16118;DHT22;8163;50.118;5.342;2022-07-30T07:54:17;37.70;40.40
16118;DHT22;8163;50.118;5.342;2022-07-30T07:56:44;37.80;40.40
16118;DHT22;8163;50.118;5.342;2022-07-30T07:59:13;37.90;40.20
16118;DHT22;8163;50.118;5.342;2022-07-30T08:01:40;37.90;39.90
16118;DHT22;8163;50.118;5.342;2022-07-30T08:04:08;37.90;39.40
16118;DHT22;8163;50.118;5.342;2022-07-30T08:06:35;37.80;39.40
16118;DHT22;8163;50.118;5.342;2022-07-30T08:09:02;37.90;39.00
16118;DHT22;8163;50.118;5.342;2022-07-30T08:11:29;38.00;38.50
16118;DHT22;8163;50.118;5.342;2022-07-30T08:13:57;38.10;38.40
16118;DHT22;8163;50.118;5.342;2022-07-30T08:16:24;38.10;37.80
16118;DHT22;8163;50.118;5.342;2022-07-30T08:18:51;38.10;37.70
16118;DHT22;8163;50.118;5.342;2022-07-30T08:21:20;38.10;37.80
16118;DHT22;8163;50.118;5.342;2022-07-30T08:23:47;38.10;37.00
16118;DHT22;8163;50.118;5.342;2022-07-30T08:26:14;38.10;36.80
16118;DHT22;8163;50.118;5.342;2022-07-30T08:28:41;38.10;36.50
16118;DHT22;8163;50.118;5.342;2022-07-30T08:31:10;38.10;36.50
16118;DHT22;8163;50.118;5.342;2022-07-30T08:33:37;38.10;36.40
16118;DHT22;8163;50.118;5.342;2022-07-30T08:36:04;38.10;36.20
16118;DHT22;8163;50.118;5.342;2022-07-30T08:38:33;38.00;35.80
16118;DHT22;8163;50.118;5.342;2022-07-30T08:41:00;37.90;35.60
16118;DHT22;8163;50.118;5.342;2022-07-30T08:43:28;37.90;35.60
16118;DHT22;8163;50.118;5.342;2022-07-30T08:45:55;37.90;35.60
16118;DHT22;8163;50.118;5.342;2022-07-30T08:48:25;38.00;35.80
16118;DHT22;8163;50.118;5.342;2022-07-30T08:50:52;38.00;36.00
16118;DHT22;8163;50.118;5.342;2022-07-30T08:53:20;38.00;36.10
16118;DHT22;8163;50.118;5.342;2022-07-30T08:55:49;38.00;36.30
16118;DHT22;8163;50.118;5.342;2022-07-30T08:58:28;38.00;36.10
16118;DHT22;8163;50.118;5.342;2022-07-30T09:00:55;38.10;35.80
16118;DHT22;8163;50.118;5.342;2022-07-30T09:03:22;38.00;36.60
16118;DHT22;8163;50.118;5.342;2022-07-30T09:05:50;38.10;36.10
16118;DHT22;8163;50.118;5.342;2022-07-30T09:08:17;38.10;35.70
16118;DHT22;8163;50.118;5.342;2022-07-30T09:47:01;38.40;36.10
16118;DHT22;8163;50.118;5.342;2022-07-30T09:49:28;37.80;34.60
16118;DHT22;8163;50.118;5.342;2022-07-30T09:51:56;37.90;33.80
16118;DHT22;8163;50.118;5.342;2022-07-30T09:54:23;38.20;33.60
16118;DHT22;8163;50.118;5.342;2022-07-30T09:57:03;38.30;33.00
16118;DHT22;8163;50.118;5.342;2022-07-30T09:59:32;38.30;32.40
16118;DHT22;8163;50.118;5.342;2022-07-30T10:02:00;38.40;32.80
16118;DHT22;8163;50.118;5.342;2022-07-30T10:04:29;38.30;32.70
16118;DHT22;8163;50.118;5.342;2022-07-30T10:06:58;38.30;32.70
16118;DHT22;8163;50.118;5.342;2022-07-30T10:09:28;38.20;32.70
16118;DHT22;8163;50.118;5.342;2022-07-30T10:11:57;38.30;32.70
16118;DHT22;8163;50.118;5.342;2022-07-30T10:14:28;38.30;32.60
16118;DHT22;8163;50.118;5.342;2022-07-30T10:16:55;38.20;32.50
16118;DHT22;8163;50.118;5.342;2022-07-30T10:19:24;38.20;32.50
16118;DHT22;8163;50.118;5.342;2022-07-30T10:21:52;38.40;32.50
16118;DHT22;8163;50.118;5.342;2022-07-30T10:24:23;38.20;32.70
16118;DHT22;8163;50.118;5.342;2022-07-30T10:26:51;38.20;32.80
16118;DHT22;8163;50.118;5.342;2022-07-30T10:29:19;37.90;33.00
16118;DHT22;8163;50.118;5.342;2022-07-30T10:31:47;37.50;33.30
16118;DHT22;8163;50.118;5.342;2022-07-30T10:34:16;37.40;33.30
16118;DHT22;8163;50.118;5.342;2022-07-30T10:36:47;37.40;33.20
16118;DHT22;8163;50.118;5.342;2022-07-30T10:39:19;37.60;33.30
16118;DHT22;8163;50.118;5.342;2022-07-30T10:41:58;37.70;33.40
16118;DHT22;8163;50.118;5.342;2022-07-30T10:47:31;37.20;33.10
16118;DHT22;8163;50.118;5.342;2022-07-30T10:50:10;37.00;33.70
16118;DHT22;8163;50.118;5.342;2022-07-30T10:52:44;36.40;33.60
16118;DHT22;8163;50.118;5.342;2022-07-30T10:55:16;36.10;34.00
16118;DHT22;8163;50.118;5.342;2022-07-30T10:58:03;36.00;34.30
16118;DHT22;8163;50.118;5.342;2022-07-30T11:00:33;36.10;34.60
16118;DHT22;8163;50.118;5.342;2022-07-30T11:03:27;36.00;34.80
16118;DHT22;8163;50.118;5.342;2022-07-30T11:06:25;35.70;34.70
16118;DHT22;8163;50.118;5.342;2022-07-30T11:08:54;35.40;35.10
16118;DHT22;8163;50.118;5.342;2022-07-30T11:11:44;35.50;36.00
16118;DHT22;8163;50.118;5.342;2022-07-30T11:14:12;36.10;35.20
16118;DHT22;8163;50.118;5.342;2022-07-30T11:16:57;36.80;35.00
16118;DHT22;8163;50.118;5.342;2022-07-30T11:19:24;37.00;34.50
16118;DHT22;8163;50.118;5.342;2022-07-30T11:22:21;37.00;34.30
16118;DHT22;8163;50.118;5.342;2022-07-30T11:24:50;37.20;34.00
16118;DHT22;8163;50.118;5.342;2022-07-30T11:27:35;36.80;33.80
16118;DHT22;8163;50.118;5.342;2022-07-30T11:30:04;36.30;33.70
16118;DHT22;8163;50.118;5.342;2022-07-30T11:32:33;36.50;34.10
16118;DHT22;8163;50.118;5.342;2022-07-30T11:35:14;36.70;34.30
16118;DHT22;8163;50.118;5.342;2022-07-30T11:37:59;36.90;34.10
16118;DHT22;8163;50.118;5.342;2022-07-30T11:40:29;37.50;34.00
16118;DHT22;8163;50.118;5.342;2022-07-30T11:43:16;37.50;33.80
16118;DHT22;8163;50.118;5.342;2022-07-30T11:45:43;37.80;33.40
16118;DHT22;8163;50.118;5.342;2022-07-30T11:48:12;38.00;33.60
16118;DHT22;8163;50.118;5.342;2022-07-30T11:50:40;37.80;33.10
16118;DHT22;8163;50.118;5.342;2022-07-30T11:53:10;37.10;33.00
16118;DHT22;8163;50.118;5.342;2022-07-30T11:55:42;37.10;33.10
16118;DHT22;8163;50.118;5.342;2022-07-30T11:58:22;36.90;33.10
16118;DHT22;8163;50.118;5.342;2022-07-30T12:00:50;36.60;33.20
16118;DHT22;8163;50.118;5.342;2022-07-30T12:03:19;36.00;33.40
16118;DHT22;8163;50.118;5.342;2022-07-30T12:05:47;35.70;33.60
16118;DHT22;8163;50.118;5.342;2022-07-30T12:08:15;35.90;34.00
16118;DHT22;8163;50.118;5.342;2022-07-30T12:10:56;36.10;34.00
16118;DHT22;8163;50.118;5.342;2022-07-30T12:13:23;36.40;34.00
16118;DHT22;8163;50.118;5.342;2022-07-30T12:15:50;36.60;33.90
16118;DHT22;8163;50.118;5.342;2022-07-30T12:18:25;36.70;33.70
16118;DHT22;8163;50.118;5.342;2022-07-30T12:20:54;37.00;33.20
16118;DHT22;8163;50.118;5.342;2022-07-30T12:23:21;37.00;32.90
16118;DHT22;8163;50.118;5.342;2022-07-30T12:25:50;37.00;32.90
16118;DHT22;8163;50.118;5.342;2022-07-30T12:28:22;36.80;32.50
16118;DHT22;8163;50.118;5.342;2022-07-30T12:30:50;36.90;32.50
16118;DHT22;8163;50.118;5.342;2022-07-30T12:33:18;36.80;32.30
16118;DHT22;8163;50.118;5.342;2022-07-30T12:35:46;36.50;32.00
16118;DHT22;8163;50.118;5.342;2022-07-30T12:38:14;36.30;32.00
16118;DHT22;8163;50.118;5.342;2022-07-30T12:40:56;36.00;32.30
16118;DHT22;8163;50.118;5.342;2022-07-30T12:43:47;35.60;32.50
16118;DHT22;8163;50.118;5.342;2022-07-30T12:46:16;35.20;32.70
16118;DHT22;8163;50.118;5.342;2022-07-30T12:48:54;35.30;32.70
16118;DHT22;8163;50.118;5.342;2022-07-30T12:51:23;35.60;33.10
16118;DHT22;8163;50.118;5.342;2022-07-30T12:53:51;35.70;33.00
16118;DHT22;8163;50.118;5.342;2022-07-30T12:56:21;36.00;33.30
16118;DHT22;8163;50.118;5.342;2022-07-30T12:58:48;36.10;33.30
16118;DHT22;8163;50.118;5.342;2022-07-30T13:01:16;36.00;33.30
16118;DHT22;8163;50.118;5.342;2022-07-30T13:03:43;35.80;33.30
16118;DHT22;8163;50.118;5.342;2022-07-30T13:06:13;35.70;33.50
16118;DHT22;8163;50.118;5.342;2022-07-30T13:08:48;35.50;33.50
16118;DHT22;8163;50.118;5.342;2022-07-30T13:11:17;35.40;33.50
16118;DHT22;8163;50.118;5.342;2022-07-30T13:13:46;35.40;33.50
16118;DHT22;8163;50.118;5.342;2022-07-30T13:16:14;35.70;33.50
16118;DHT22;8163;50.118;5.342;2022-07-30T13:18:42;35.70;33.50
16118;DHT22;8163;50.118;5.342;2022-07-30T13:21:09;35.90;33.50
16118;DHT22;8163;50.118;5.342;2022-07-30T13:23:37;35.70;33.20
16118;DHT22;8163;50.118;5.342;2022-07-30T13:26:05;35.70;33.10
16118;DHT22;8163;50.118;5.342;2022-07-30T13:28:33;35.60;33.10
16118;DHT22;8163;50.118;5.342;2022-07-30T13:31:03;35.30;33.20
16118;DHT22;8163;50.118;5.342;2022-07-30T13:33:31;35.20;33.50
16118;DHT22;8163;50.118;5.342;2022-07-30T13:35:59;35.20;33.80
16118;DHT22;8163;50.118;5.342;2022-07-30T13:38:27;34.90;34.00
16118;DHT22;8163;50.118;5.342;2022-07-30T13:40:55;34.70;34.30
16118;DHT22;8163;50.118;5.342;2022-07-30T13:43:23;34.70;34.40
16118;DHT22;8163;50.118;5.342;2022-07-30T13:45:50;34.80;34.40
16118;DHT22;8163;50.118;5.342;2022-07-30T13:48:19;34.60;34.50
16118;DHT22;8163;50.118;5.342;2022-07-30T13:50:46;34.60;34.70
16118;DHT22;8163;50.118;5.342;2022-07-30T13:53:13;34.50;34.80
16118;DHT22;8163;50.118;5.342;2022-07-30T13:55:41;34.40;34.90
16118;DHT22;8163;50.118;5.342;2022-07-30T13:58:08;34.40;35.10
16118;DHT22;8163;50.118;5.342;2022-07-30T14:00:35;34.50;35.40
16118;DHT22;8163;50.118;5.342;2022-07-30T14:03:07;34.40;35.50
16118;DHT22;8163;50.118;5.342;2022-07-30T14:05:37;34.20;35.60
16118;DHT22;8163;50.118;5.342;2022-07-30T14:08:07;34.00;35.80
16118;DHT22;8163;50.118;5.342;2022-07-30T14:10:35;33.90;36.00
16118;DHT22;8163;50.118;5.342;2022-07-30T14:13:04;34.00;36.00
16118;DHT22;8163;50.118;5.342;2022-07-30T14:15:31;34.00;36.00
16118;DHT22;8163;50.118;5.342;2022-07-30T14:17:59;34.00;36.00
16118;DHT22;8163;50.118;5.342;2022-07-30T14:20:27;34.10;36.10
16118;DHT22;8163;50.118;5.342;2022-07-30T14:22:56;34.10;36.10
16118;DHT22;8163;50.118;5.342;2022-07-30T14:25:23;34.20;36.10
16118;DHT22;8163;50.118;5.342;2022-07-30T14:27:50;34.10;35.80
16118;DHT22;8163;50.118;5.342;2022-07-30T14:30:17;33.80;35.40
16118;DHT22;8163;50.118;5.342;2022-07-30T14:32:44;33.60;35.40
16118;DHT22;8163;50.118;5.342;2022-07-30T14:35:11;33.40;35.50
16118;DHT22;8163;50.118;5.342;2022-07-30T14:37:39;33.00;35.40
16118;DHT22;8163;50.118;5.342;2022-07-30T14:40:09;32.70;35.60
16118;DHT22;8163;50.118;5.342;2022-07-30T14:42:37;32.30;36.00
16118;DHT22;8163;50.118;5.342;2022-07-30T14:45:05;32.10;36.20
16118;DHT22;8163;50.118;5.342;2022-07-30T14:47:32;31.90;36.30
16118;DHT22;8163;50.118;5.342;2022-07-30T14:49:59;32.00;36.70
16118;DHT22;8163;50.118;5.342;2022-07-30T14:52:27;32.00;37.00
16118;DHT22;8163;50.118;5.342;2022-07-30T14:54:54;32.00;37.10
16118;DHT22;8163;50.118;5.342;2022-07-30T14:57:22;32.00;37.30
16118;DHT22;8163;50.118;5.342;2022-07-30T14:59:49;32.00;37.50
16118;DHT22;8163;50.118;5.342;2022-07-30T15:02:16;32.10;37.70
16118;DHT22;8163;50.118;5.342;2022-07-30T15:04:43;32.20;37.90
16118;DHT22;8163;50.118;5.342;2022-07-30T15:07:11;32.20;38.00
16118;DHT22;8163;50.118;5.342;2022-07-30T15:09:39;32.40;38.10
16118;DHT22;8163;50.118;5.342;2022-07-30T15:12:07;32.40;37.90
16118;DHT22;8163;50.118;5.342;2022-07-30T15:14:37;32.30;38.00
16118;DHT22;8163;50.118;5.342;2022-07-30T15:17:06;32.30;38.20
16118;DHT22;8163;50.118;5.342;2022-07-30T15:19:33;32.10;38.10
16118;DHT22;8163;50.118;5.342;2022-07-30T15:22:00;31.90;38.20
16118;DHT22;8163;50.118;5.342;2022-07-30T15:24:28;31.80;38.30
16118;DHT22;8163;50.118;5.342;2022-07-30T15:26:57;31.70;38.50
16118;DHT22;8163;50.118;5.342;2022-07-30T15:29:24;31.60;38.70
16118;DHT22;8163;50.118;5.342;2022-07-30T15:31:55;31.50;38.80
16118;DHT22;8163;50.118;5.342;2022-07-30T15:34:24;31.40;38.80
16118;DHT22;8163;50.118;5.342;2022-07-30T15:36:52;31.30;38.90
16118;DHT22;8163;50.118;5.342;2022-07-30T15:39:19;31.10;39.00
16118;DHT22;8163;50.118;5.342;2022-07-30T15:41:46;30.90;39.00
16118;DHT22;8163;50.118;5.342;2022-07-30T15:44:13;30.70;39.00
16118;DHT22;8163;50.118;5.342;2022-07-30T15:46:42;30.30;39.20
16118;DHT22;8163;50.118;5.342;2022-07-30T15:49:12;30.30;39.70
16118;DHT22;8163;50.118;5.342;2022-07-30T15:51:40;30.10;39.80
16118;DHT22;8163;50.118;5.342;2022-07-30T15:54:13;30.00;40.00
16118;DHT22;8163;50.118;5.342;2022-07-30T15:56:40;29.90;40.10
16118;DHT22;8163;50.118;5.342;2022-07-30T15:59:07;29.90;40.50
16118;DHT22;8163;50.118;5.342;2022-07-30T16:01:34;29.90;40.60
16118;DHT22;8163;50.118;5.342;2022-07-30T16:04:02;30.00;40.60
16118;DHT22;8163;50.118;5.342;2022-07-30T16:06:31;30.10;40.70
16118;DHT22;8163;50.118;5.342;2022-07-30T16:08:58;30.10;40.80
16118;DHT22;8163;50.118;5.342;2022-07-30T16:11:25;30.00;40.80
16118;DHT22;8163;50.118;5.342;2022-07-30T16:13:55;29.90;40.90
16118;DHT22;8163;50.118;5.342;2022-07-30T16:16:22;29.80;41.00
16118;DHT22;8163;50.118;5.342;2022-07-30T16:18:49;29.70;41.00
16118;DHT22;8163;50.118;5.342;2022-07-30T16:21:16;29.70;41.20
16118;DHT22;8163;50.118;5.342;2022-07-30T16:23:45;29.70;41.30
16118;DHT22;8163;50.118;5.342;2022-07-30T16:26:12;29.80;41.40
16118;DHT22;8163;50.118;5.342;2022-07-30T16:28:39;29.80;41.40
16118;DHT22;8163;50.118;5.342;2022-07-30T16:31:07;29.80;41.60
16118;DHT22;8163;50.118;5.342;2022-07-30T16:33:34;29.80;41.50
16118;DHT22;8163;50.118;5.342;2022-07-30T16:36:01;29.80;42.10
16118;DHT22;8163;50.118;5.342;2022-07-30T16:38:28;29.80;41.60
16118;DHT22;8163;50.118;5.342;2022-07-30T16:40:57;29.70;41.60
16118;DHT22;8163;50.118;5.342;2022-07-30T16:43:24;29.60;41.70